createdAt,value
2022-11-21T00:00:53.338Z,9.719213
2022-11-21T00:01:53.379Z,9.719242
2022-11-21T00:02:53.320Z,9.719341
2022-11-21T00:03:53.301Z,9.719354
2022-11-21T00:04:53.277Z,9.719374
2022-11-21T00:05:53.280Z,9.719329
2022-11-21T00:06:53.285Z,9.719245
2022-11-21T00:07:53.321Z,9.719276
2022-11-21T00:08:53.247Z,9.719263
2022-11-21T00:09:53.226Z,9.719264
2022-11-21T00:10:53.230Z,9.719258
2022-11-21T00:11:53.210Z,9.719237
2022-11-21T00:12:53.210Z,9.719214
2022-11-21T00:13:53.235Z,9.719131
2022-11-21T00:14:53.226Z,9.719116
2022-11-21T00:15:53.206Z,9.719114
2022-11-21T00:16:57.191Z,9.719134
2022-11-21T00:17:54.167Z,9.719172
2022-11-21T00:18:53.151Z,9.719128
2022-11-21T00:19:53.127Z,9.719187
2022-11-21T00:20:53.132Z,9.719215
2022-11-21T00:21:53.150Z,9.719266
2022-11-21T00:22:53.111Z,9.719272
2022-11-21T00:23:53.094Z,9.719184
2022-11-21T00:24:54.435Z,9.719294
2022-11-21T00:25:53.086Z,9.719295
2022-11-21T00:26:53.078Z,9.719249
2022-11-21T00:27:53.070Z,9.719191
2022-11-21T00:28:53.074Z,9.719289
2022-11-21T00:29:53.062Z,9.719294
2022-11-21T00:30:53.019Z,9.719247
2022-11-21T00:31:53.052Z,9.719250
2022-11-21T00:32:53.006Z,9.719238
2022-11-21T00:33:53.025Z,9.719292
2022-11-21T00:34:53.008Z,9.719235
2022-11-21T00:35:52.987Z,9.719233
2022-11-21T00:36:52.966Z,9.719241
2022-11-21T00:37:52.998Z,9.719194
2022-11-21T00:38:52.958Z,9.719212
2022-11-21T00:39:52.957Z,9.719208
2022-11-21T00:40:53.926Z,9.719280
2022-11-21T00:41:52.942Z,9.719280
2022-11-21T00:42:52.996Z,9.719310
2022-11-21T00:43:52.928Z,9.719129
2022-11-21T00:44:52.891Z,9.719202
2022-11-21T00:45:52.899Z,9.719135
2022-11-21T00:46:52.880Z,9.719265
2022-11-21T00:47:52.862Z,9.719254
2022-11-21T00:48:52.880Z,9.719271
2022-11-21T00:49:52.855Z,9.719350
2022-11-21T00:50:52.834Z,9.719391
2022-11-21T00:51:52.833Z,9.719491
2022-11-21T00:52:52.829Z,9.719469
2022-11-21T00:53:52.847Z,9.719419
2022-11-21T00:54:52.805Z,9.719354
2022-11-21T00:55:52.790Z,9.719210
2022-11-21T00:56:52.790Z,9.719212
2022-11-21T00:57:52.774Z,9.719282
2022-11-21T00:58:52.778Z,9.719290
2022-11-21T00:59:52.766Z,9.719352
2022-11-21T01:00:52.822Z,9.719316
2022-11-21T01:01:52.736Z,9.719256
2022-11-21T01:02:52.713Z,9.719232
2022-11-21T01:03:52.749Z,9.719164
2022-11-21T01:04:52.704Z,9.719164
2022-11-21T01:05:52.715Z,9.719177
2022-11-21T01:06:52.697Z,9.719296
2022-11-21T01:07:52.709Z,9.719352
2022-11-21T01:08:52.670Z,9.719163
2022-11-21T01:09:52.691Z,9.719197
2022-11-21T01:10:52.686Z,9.719293
2022-11-21T01:11:52.677Z,9.719135
2022-11-21T01:12:52.636Z,9.719101
2022-11-21T01:13:52.666Z,9.719254
2022-11-21T01:14:52.628Z,9.719302
2022-11-21T01:15:52.637Z,9.719324
2022-11-21T01:16:52.650Z,9.719279
2022-11-21T01:17:52.594Z,9.719297
2022-11-21T01:18:52.603Z,9.719214
2022-11-21T01:19:52.598Z,9.719293
2022-11-21T01:20:52.563Z,9.719359
2022-11-21T01:21:52.548Z,9.719296
2022-11-21T01:22:52.565Z,9.719223
2022-11-21T01:23:52.506Z,9.719172
2022-11-21T01:24:52.549Z,9.719244
2022-11-21T01:25:52.511Z,9.719102
2022-11-21T01:26:52.507Z,9.719181
2022-11-21T01:27:52.601Z,9.719205
2022-11-21T01:28:52.482Z,9.719193
2022-11-21T01:29:52.479Z,9.719202
2022-11-21T01:30:52.475Z,9.719237
2022-11-21T01:31:52.453Z,9.719181
2022-11-21T01:32:52.442Z,9.719387
2022-11-21T01:33:52.441Z,9.719387
2022-11-21T01:34:52.419Z,9.719334
2022-11-21T01:35:52.436Z,9.719292
2022-11-21T01:36:52.401Z,9.719311
2022-11-21T01:37:52.423Z,9.719290
2022-11-21T01:38:52.379Z,9.719331
2022-11-21T01:39:52.361Z,9.719349
2022-11-21T01:40:52.349Z,9.719330
2022-11-21T01:41:52.415Z,9.719223
2022-11-21T01:42:52.356Z,9.719258
2022-11-21T01:43:52.330Z,9.719283
2022-11-21T01:44:52.338Z,9.719261
2022-11-21T01:45:52.309Z,9.719201
2022-11-21T01:46:52.359Z,9.719302
2022-11-21T01:47:52.306Z,9.719441
2022-11-21T01:48:52.301Z,9.719458
2022-11-21T01:49:52.271Z,9.719427
2022-11-21T01:50:52.295Z,9.719317
2022-11-21T01:51:52.304Z,9.719399
2022-11-21T01:52:52.285Z,9.719730
2022-11-21T01:53:52.239Z,9.719652
2022-11-21T01:54:52.244Z,9.719539
2022-11-21T01:55:52.217Z,9.719660
2022-11-21T01:56:52.248Z,9.719756
2022-11-21T01:57:52.250Z,9.719575
2022-11-21T01:58:52.178Z,9.719126
2022-11-21T01:59:52.187Z,9.719199
2022-11-21T02:00:52.286Z,9.719313
2022-11-21T02:01:52.159Z,9.719376
2022-11-21T02:02:52.195Z,9.719567
2022-11-21T02:03:52.164Z,9.719497
2022-11-21T02:04:52.127Z,9.719372
2022-11-21T02:05:52.128Z,9.719359
2022-11-21T02:06:52.117Z,9.719632
2022-11-21T02:07:52.127Z,9.719526
2022-11-21T02:08:52.079Z,9.719469
2022-11-21T02:09:53.107Z,9.719177
2022-11-21T02:10:52.090Z,9.719417
2022-11-21T02:11:52.109Z,9.719288
2022-11-21T02:12:52.061Z,9.719369
2022-11-21T02:13:52.074Z,9.719650
2022-11-21T02:14:52.043Z,9.719505
2022-11-21T02:15:52.067Z,9.719256
2022-11-21T02:16:52.016Z,9.719345
2022-11-21T02:17:51.996Z,9.719830
2022-11-21T02:18:52.065Z,9.719576
2022-11-21T02:19:52.024Z,9.719495
2022-11-21T02:20:52.967Z,9.719420
2022-11-21T02:21:51.966Z,9.719512
2022-11-21T02:22:51.964Z,9.719611
2022-11-21T02:23:54.295Z,9.719532
2022-11-21T02:24:52.974Z,9.719367
2022-11-21T02:25:51.920Z,9.719312
2022-11-21T02:26:51.925Z,9.719135
2022-11-21T02:27:51.903Z,9.719381
2022-11-21T02:28:51.869Z,9.719381
2022-11-21T02:29:51.895Z,9.719381
2022-11-21T02:30:51.891Z,9.719381
2022-11-21T02:31:51.875Z,9.719381
2022-11-21T02:32:51.877Z,9.719434
2022-11-21T02:33:51.846Z,9.719434
2022-11-21T02:34:51.818Z,9.719434
2022-11-21T02:35:51.845Z,9.719434
2022-11-21T02:36:51.830Z,9.719401
2022-11-21T02:37:51.806Z,9.719401
2022-11-21T02:38:51.821Z,9.719401
2022-11-21T02:39:51.811Z,9.719401
2022-11-21T02:40:51.765Z,9.719401
2022-11-21T02:41:51.767Z,9.719401
2022-11-21T02:42:52.928Z,9.718896
2022-11-21T02:43:52.768Z,9.718896
2022-11-21T02:44:51.724Z,9.718896
2022-11-21T02:45:51.717Z,9.718896
2022-11-21T02:46:51.729Z,9.718896
2022-11-21T02:47:51.725Z,9.718896
2022-11-21T02:48:51.685Z,9.718896
2022-11-21T02:49:51.695Z,9.718896
2022-11-21T02:50:51.698Z,9.718896
2022-11-21T02:51:51.662Z,9.718896
2022-11-21T02:52:51.664Z,9.718896
2022-11-21T02:53:51.662Z,9.718896
2022-11-21T02:54:51.657Z,9.719273
2022-11-21T02:55:51.631Z,9.719218
2022-11-21T02:56:51.639Z,9.719171
2022-11-21T02:57:51.613Z,9.719082
2022-11-21T02:58:51.625Z,9.719013
2022-11-21T02:59:51.592Z,9.719252
2022-11-21T03:00:51.683Z,9.719189
2022-11-21T03:01:51.580Z,9.719187
2022-11-21T03:02:51.580Z,9.719171
2022-11-21T03:04:23.384Z,9.719015
2022-11-21T03:04:51.491Z,9.718870
2022-11-21T03:05:51.480Z,9.719029
2022-11-21T03:06:51.463Z,9.719296
2022-11-21T03:07:51.485Z,9.719213
2022-11-21T03:08:51.448Z,9.719020
2022-11-21T03:09:51.435Z,9.719076
2022-11-21T03:10:51.428Z,9.719076
2022-11-21T03:11:51.423Z,9.719076
2022-11-21T03:12:51.426Z,9.719076
2022-11-21T03:13:51.390Z,9.719076
2022-11-21T03:14:51.383Z,9.719076
2022-11-21T03:15:51.372Z,9.719076
2022-11-21T03:16:51.365Z,9.719076
2022-11-21T03:17:51.354Z,9.719047
2022-11-21T03:18:51.361Z,9.719003
2022-11-21T03:19:51.344Z,9.719008
2022-11-21T03:20:51.331Z,9.719639
2022-11-21T03:21:51.314Z,9.719223
2022-11-21T03:22:51.312Z,9.719143
2022-11-21T03:23:51.330Z,9.718929
2022-11-21T03:24:51.290Z,9.719144
2022-11-21T03:25:51.286Z,9.719074
2022-11-21T03:26:51.279Z,9.719145
2022-11-21T03:27:51.261Z,9.719095
2022-11-21T03:28:51.247Z,9.719135
2022-11-21T03:29:51.263Z,9.719194
2022-11-21T03:30:51.236Z,9.719180
2022-11-21T03:31:51.233Z,9.719133
2022-11-21T03:32:51.222Z,9.719101
2022-11-21T03:33:51.200Z,9.719117
2022-11-21T03:34:51.214Z,9.719180
2022-11-21T03:35:52.188Z,9.719180
2022-11-21T03:36:51.173Z,9.719246
2022-11-21T03:37:51.174Z,9.719242
2022-11-21T03:38:51.159Z,9.719306
2022-11-21T03:39:51.179Z,9.719238
2022-11-21T03:40:51.143Z,9.719184
2022-11-21T03:41:51.187Z,9.719139
2022-11-21T03:42:51.137Z,9.719017
2022-11-21T03:43:51.127Z,9.719082
2022-11-21T03:44:51.114Z,9.719110
2022-11-21T03:45:51.121Z,9.719133
2022-11-21T03:46:51.092Z,9.719122
2022-11-21T03:47:51.075Z,9.719160
2022-11-21T03:48:51.066Z,9.719219
2022-11-21T03:49:51.052Z,9.719246
2022-11-21T03:50:51.060Z,9.719190
2022-11-21T03:51:51.042Z,9.719197
2022-11-21T03:52:51.028Z,9.719114
2022-11-21T03:53:51.018Z,9.719078
2022-11-21T03:54:51.003Z,9.719048
2022-11-21T03:55:51.011Z,9.719042
2022-11-21T03:56:51.006Z,9.719103
2022-11-21T03:57:50.997Z,9.719125
2022-11-21T03:58:50.975Z,9.719151
2022-11-21T03:59:50.992Z,9.719087
2022-11-21T04:00:50.957Z,9.719147
2022-11-21T04:01:51.003Z,9.719141
2022-11-21T04:02:50.941Z,9.719144
2022-11-21T04:03:50.918Z,9.719133
2022-11-21T04:04:50.913Z,9.719055
2022-11-21T04:05:50.897Z,9.719316
2022-11-21T04:06:50.914Z,9.719260
2022-11-21T04:07:50.885Z,9.719367
2022-11-21T04:08:50.875Z,9.719419
2022-11-21T04:09:50.885Z,9.719419
2022-11-21T04:10:50.844Z,9.719513
2022-11-21T04:11:50.835Z,9.719177
2022-11-21T04:12:50.832Z,9.719049
2022-11-21T04:13:50.824Z,9.719635
2022-11-21T04:14:50.824Z,9.719671
2022-11-21T04:15:50.811Z,9.719514
2022-11-21T04:16:50.787Z,9.719569
2022-11-21T04:17:50.791Z,9.719787
2022-11-21T04:18:50.793Z,9.719789
2022-11-21T04:19:50.790Z,9.719061
2022-11-21T04:20:50.757Z,9.719283
2022-11-21T04:21:50.754Z,9.719405
2022-11-21T04:22:50.728Z,9.719405
2022-11-21T04:23:50.711Z,9.719544
2022-11-21T04:24:50.699Z,9.719479
2022-11-21T04:25:50.699Z,9.719219
2022-11-21T04:26:50.712Z,9.719270
2022-11-21T04:27:50.694Z,9.719270
2022-11-21T04:28:50.671Z,9.719270
2022-11-21T04:29:50.664Z,9.719270
2022-11-21T04:30:54.465Z,9.719270
2022-11-21T04:31:50.644Z,9.719270
2022-11-21T04:32:50.656Z,9.719270
2022-11-21T04:33:50.627Z,9.719270
2022-11-21T04:34:50.610Z,9.718386
2022-11-21T04:35:50.609Z,9.718284
2022-11-21T04:36:50.641Z,9.718337
2022-11-21T04:37:50.592Z,9.718261
2022-11-21T04:38:50.609Z,9.718688
2022-11-21T04:39:50.559Z,9.718719
2022-11-21T04:40:50.562Z,9.719146
2022-11-21T04:41:50.540Z,9.718945
2022-11-21T04:42:50.536Z,9.719130
2022-11-21T04:43:50.546Z,9.719194
2022-11-21T04:44:50.521Z,9.719213
2022-11-21T04:45:50.509Z,9.719196
2022-11-21T04:46:50.497Z,9.719248
2022-11-21T04:47:50.485Z,9.719208
2022-11-21T04:48:50.476Z,9.719151
2022-11-21T04:49:50.478Z,9.719197
2022-11-21T04:50:50.463Z,9.719137
2022-11-21T04:51:50.444Z,9.719151
2022-11-21T04:52:50.453Z,9.719070
2022-11-21T04:53:50.420Z,9.719169
2022-11-21T04:54:50.441Z,9.719166
2022-11-21T04:55:50.422Z,9.719202
2022-11-21T04:56:50.415Z,9.719133
2022-11-21T04:57:50.396Z,9.719090
2022-11-21T04:58:50.391Z,9.719185
2022-11-21T04:59:50.370Z,9.719164
2022-11-21T05:00:50.428Z,9.719169
2022-11-21T05:01:50.401Z,9.719086
2022-11-21T05:02:50.337Z,9.719138
2022-11-21T05:03:50.327Z,9.719164
2022-11-21T05:04:50.337Z,9.719146
2022-11-21T05:05:50.305Z,9.719123
2022-11-21T05:06:50.317Z,9.719156
2022-11-21T05:07:50.285Z,9.719049
2022-11-21T05:08:53.457Z,9.719143
2022-11-21T05:09:51.260Z,9.719180
2022-11-21T05:10:50.278Z,9.719069
2022-11-21T05:11:50.245Z,9.719183
2022-11-21T05:12:50.255Z,9.719419
2022-11-21T05:13:50.232Z,9.719294
2022-11-21T05:14:50.218Z,9.719347
2022-11-21T05:15:50.213Z,9.719222
2022-11-21T05:16:50.207Z,9.719072
2022-11-21T05:17:50.253Z,9.719093
2022-11-21T05:18:50.195Z,9.719321
2022-11-21T05:19:50.172Z,9.719316
2022-11-21T05:20:50.163Z,9.719284
2022-11-21T05:21:50.156Z,9.719265
2022-11-21T05:22:50.144Z,9.719237
2022-11-21T05:23:50.145Z,9.719165
2022-11-21T05:24:50.131Z,9.719162
2022-11-21T05:25:50.132Z,9.719245
2022-11-21T05:26:50.128Z,9.719391
2022-11-21T05:27:50.101Z,9.719155
2022-11-21T05:28:50.133Z,9.718972
2022-11-21T05:29:50.095Z,9.719353
2022-11-21T05:30:50.070Z,9.719475
2022-11-21T05:31:50.067Z,9.719346
2022-11-21T05:32:50.049Z,9.719423
2022-11-21T05:33:50.065Z,9.719308
2022-11-21T05:34:50.028Z,9.719160
2022-11-21T05:35:50.021Z,9.719205
2022-11-21T05:36:50.016Z,9.719141
2022-11-21T05:37:49.997Z,9.719138
2022-11-21T05:38:49.989Z,9.719117
2022-11-21T05:39:49.994Z,9.719115
2022-11-21T05:40:49.975Z,9.719118
2022-11-21T05:41:49.971Z,9.719001
2022-11-21T05:42:49.951Z,9.719167
2022-11-21T05:43:49.956Z,9.719204
2022-11-21T05:44:49.946Z,9.719266
2022-11-21T05:45:49.919Z,9.719130
2022-11-21T05:46:49.912Z,9.719248
2022-11-21T05:47:49.921Z,9.719272
2022-11-21T05:48:49.917Z,9.719288
2022-11-21T05:49:49.886Z,9.719271
2022-11-21T05:50:49.897Z,9.719195
2022-11-21T05:51:49.873Z,9.719092
2022-11-21T05:52:49.859Z,9.719179
2022-11-21T05:53:49.853Z,9.719200
2022-11-21T05:54:49.849Z,9.719127
2022-11-21T05:55:49.827Z,9.719268
2022-11-21T05:56:49.837Z,9.719017
2022-11-21T05:57:49.807Z,9.719199
2022-11-21T05:58:49.823Z,9.719049
2022-11-21T05:59:49.799Z,9.718965
2022-11-21T06:00:49.780Z,9.718988
2022-11-21T06:01:49.782Z,9.719012
2022-11-21T06:02:49.811Z,9.719039
2022-11-21T06:03:49.809Z,9.719034
2022-11-21T06:04:49.743Z,9.718964
2022-11-21T06:05:49.731Z,9.719039
2022-11-21T06:06:49.720Z,9.719132
2022-11-21T06:07:49.709Z,9.719036
2022-11-21T06:08:49.723Z,9.719078
2022-11-21T06:09:49.691Z,9.718874
2022-11-21T06:10:49.685Z,9.719058
2022-11-21T06:11:49.708Z,9.719171
2022-11-21T06:12:49.657Z,9.719081
2022-11-21T06:13:49.654Z,9.719194
2022-11-21T06:14:49.642Z,9.719126
2022-11-21T06:15:49.633Z,9.719254
2022-11-21T06:16:49.641Z,9.719224
2022-11-21T06:17:49.622Z,9.719104
2022-11-21T06:18:50.800Z,9.718947
2022-11-21T06:19:49.598Z,9.718937
2022-11-21T06:20:49.610Z,9.718945
2022-11-21T06:21:49.597Z,9.719218
2022-11-21T06:22:49.596Z,9.719106
2022-11-21T06:23:49.552Z,9.719015
2022-11-21T06:24:49.546Z,9.719016
2022-11-21T06:25:49.575Z,9.719009
2022-11-21T06:26:49.523Z,9.718958
2022-11-21T06:27:49.531Z,9.719112
2022-11-21T06:28:49.502Z,9.719228
2022-11-21T06:29:49.503Z,9.719294
2022-11-21T06:30:49.518Z,9.719218
2022-11-21T06:31:49.480Z,9.719026
2022-11-21T06:32:49.515Z,9.719216
2022-11-21T06:33:49.462Z,9.719107
2022-11-21T06:34:49.447Z,9.719140
2022-11-21T06:35:49.453Z,9.719126
2022-11-21T06:36:49.445Z,9.718960
2022-11-21T06:37:53.340Z,9.719081
2022-11-21T06:38:50.404Z,9.718888
2022-11-21T06:39:49.396Z,9.718925
2022-11-21T06:40:49.380Z,9.718986
2022-11-21T06:41:49.399Z,9.719073
2022-11-21T06:42:49.373Z,9.719140
2022-11-21T06:43:49.376Z,9.718930
2022-11-21T06:44:49.347Z,9.719003
2022-11-21T06:45:49.371Z,9.719007
2022-11-21T06:46:51.512Z,9.718951
2022-11-21T06:47:50.316Z,9.718819
2022-11-21T06:48:49.315Z,9.718791
2022-11-21T06:49:49.296Z,9.718879
2022-11-21T06:50:49.305Z,9.718799
2022-11-21T06:51:49.341Z,9.718911
2022-11-21T06:52:49.266Z,9.718786
2022-11-21T06:53:49.283Z,9.718887
2022-11-21T06:54:49.248Z,9.718760
2022-11-21T06:55:49.254Z,9.718676
2022-11-21T06:56:49.231Z,9.718817
2022-11-21T06:57:49.225Z,9.718762
2022-11-21T06:58:49.217Z,9.718809
2022-11-21T06:59:49.202Z,9.718843
2022-11-21T07:00:49.213Z,9.718736
2022-11-21T07:01:49.247Z,9.718760
2022-11-21T07:02:49.171Z,9.718847
2022-11-21T07:03:49.161Z,9.719048
2022-11-21T07:04:49.152Z,9.719219
2022-11-21T07:05:49.141Z,9.719080
2022-11-21T07:06:49.152Z,9.719121
2022-11-21T07:07:49.126Z,9.719254
2022-11-21T07:09:00.070Z,9.719359
2022-11-21T07:09:51.327Z,9.719386
2022-11-21T07:11:17.727Z,9.719143
2022-11-21T07:11:49.092Z,9.719232
2022-11-21T07:12:49.086Z,9.719201
2022-11-21T07:13:49.086Z,9.719318
2022-11-21T07:14:49.067Z,9.719192
2022-11-21T07:15:49.065Z,9.719319
2022-11-21T07:16:49.072Z,9.719291
2022-11-21T07:17:49.036Z,9.719188
2022-11-21T07:18:49.013Z,9.719172
2022-11-21T07:19:49.006Z,9.719221
2022-11-21T07:20:49.000Z,9.719351
2022-11-21T07:21:48.985Z,9.719378
2022-11-21T07:22:49.001Z,9.719353
2022-11-21T07:23:48.980Z,9.719315
2022-11-21T07:24:48.977Z,9.719282
2022-11-21T07:25:48.963Z,9.719195
2022-11-21T07:26:48.937Z,9.719076
2022-11-21T07:27:48.926Z,9.719180
2022-11-21T07:28:48.914Z,9.719334
2022-11-21T07:29:48.949Z,9.719174
2022-11-21T07:30:48.896Z,9.719226
2022-11-21T07:31:48.888Z,9.719412
2022-11-21T07:32:48.883Z,9.719432
2022-11-21T07:33:48.881Z,9.719145
2022-11-21T07:34:48.894Z,9.719218
2022-11-21T07:35:48.835Z,9.719219
2022-11-21T07:36:48.836Z,9.719456
2022-11-21T07:37:48.818Z,9.719119
2022-11-21T07:38:48.807Z,9.719272
2022-11-21T07:39:48.821Z,9.719388
2022-11-21T07:40:48.801Z,9.719122
2022-11-21T07:41:48.804Z,9.719274
2022-11-21T07:42:48.788Z,9.719177
2022-11-21T07:43:48.770Z,9.719298
2022-11-21T07:44:48.760Z,9.719383
2022-11-21T07:45:48.752Z,9.719422
2022-11-21T07:46:48.750Z,9.719399
2022-11-21T07:47:48.729Z,9.719302
2022-11-21T07:48:48.723Z,9.719094
2022-11-21T07:49:48.709Z,9.719148
2022-11-21T07:50:48.724Z,9.719090
2022-11-21T07:51:48.711Z,9.719260
2022-11-21T07:52:48.688Z,9.719249
2022-11-21T07:53:48.672Z,9.719235
2022-11-21T07:54:48.662Z,9.719195
2022-11-21T07:55:48.697Z,9.719180
2022-11-21T07:56:48.669Z,9.719245
2022-11-21T07:57:48.640Z,9.719262
2022-11-21T07:58:48.638Z,9.719311
2022-11-21T07:59:48.619Z,9.719236
2022-11-21T08:00:48.605Z,9.719171
2022-11-21T08:01:48.599Z,9.719126
2022-11-21T08:02:48.589Z,9.719180
2022-11-21T08:03:48.602Z,9.719223
2022-11-21T08:04:48.576Z,9.719246
2022-11-21T08:05:48.630Z,9.719228
2022-11-21T08:06:48.550Z,9.719235
2022-11-21T08:07:48.530Z,9.719251
2022-11-21T08:08:48.548Z,9.719229
2022-11-21T08:09:48.525Z,9.719316
2022-11-21T08:10:48.531Z,9.719307
2022-11-21T08:11:48.526Z,9.719274
2022-11-21T08:12:48.495Z,9.719300
2022-11-21T08:13:48.481Z,9.719242
2022-11-21T08:14:48.487Z,9.719311
2022-11-21T08:15:48.486Z,9.719241
2022-11-21T08:16:48.464Z,9.719266
2022-11-21T08:17:48.458Z,9.719179
2022-11-21T08:18:48.427Z,9.719160
2022-11-21T08:19:48.434Z,9.719200
2022-11-21T08:20:48.432Z,9.719214
2022-11-21T08:21:48.413Z,9.719199
2022-11-21T08:22:48.394Z,9.719254
2022-11-21T08:23:48.477Z,9.719215
2022-11-21T08:24:48.385Z,9.719202
2022-11-21T08:25:48.379Z,9.719246
2022-11-21T08:26:48.353Z,9.719288
2022-11-21T08:27:48.364Z,9.719269
2022-11-21T08:28:48.337Z,9.719156
2022-11-21T08:29:48.326Z,9.719213
2022-11-21T08:30:48.330Z,9.719275
2022-11-21T08:31:48.312Z,9.719266
2022-11-21T08:32:48.318Z,9.719223
2022-11-21T08:33:48.291Z,9.719149
2022-11-21T08:34:48.275Z,9.719090
2022-11-21T08:35:48.294Z,9.719020
2022-11-21T08:36:48.267Z,9.719099
2022-11-21T08:37:48.257Z,9.719118
2022-11-21T08:38:48.235Z,9.719108
2022-11-21T08:39:48.231Z,9.719131
2022-11-21T08:40:48.225Z,9.719154
2022-11-21T08:41:48.204Z,9.719119
2022-11-21T08:42:48.195Z,9.719072
2022-11-21T08:43:48.206Z,9.719034
2022-11-21T08:44:48.169Z,9.719109
2022-11-21T08:45:48.178Z,9.719136
2022-11-21T08:46:48.163Z,9.718983
2022-11-21T08:47:48.138Z,9.719115
2022-11-21T08:48:48.138Z,9.719104
2022-11-21T08:49:48.151Z,9.719014
2022-11-21T08:50:48.144Z,9.719215
2022-11-21T08:51:48.096Z,9.719148
2022-11-21T08:52:48.108Z,9.719053
2022-11-21T08:53:48.101Z,9.718781
2022-11-21T08:54:48.083Z,9.719126
2022-11-21T08:55:48.079Z,9.718983
2022-11-21T08:56:48.073Z,9.719139
2022-11-21T08:57:48.042Z,9.719021
2022-11-21T08:58:48.037Z,9.719126
2022-11-21T08:59:48.033Z,9.719134
2022-11-21T09:00:48.031Z,9.719170
2022-11-21T09:01:48.030Z,9.719118
2022-11-21T09:02:47.998Z,9.719050
2022-11-21T09:03:48.017Z,9.718989
2022-11-21T09:05:19.903Z,9.719084
2022-11-21T09:05:48.013Z,9.719127
2022-11-21T09:06:48.161Z,9.719175
2022-11-21T09:07:48.049Z,9.719070
2022-11-21T09:08:48.065Z,9.718975
2022-11-21T09:09:47.965Z,9.718953
2022-11-21T09:10:47.966Z,9.719005
2022-11-21T09:11:47.968Z,9.719033
2022-11-21T09:12:47.962Z,9.719006
2022-11-21T09:13:47.968Z,9.719118
2022-11-21T09:14:47.938Z,9.719109
2022-11-21T09:15:48.041Z,9.719133
2022-11-21T09:16:48.929Z,9.719142
2022-11-21T09:17:48.002Z,9.719157
2022-11-21T09:18:48.915Z,9.719232
2022-11-21T09:19:47.878Z,9.719109
2022-11-21T09:20:47.960Z,9.719068
2022-11-21T09:21:47.876Z,9.719102
2022-11-21T09:22:47.847Z,9.719130
2022-11-21T09:23:47.859Z,9.719104
2022-11-21T09:24:47.829Z,9.719103
2022-11-21T09:25:47.846Z,9.719168
2022-11-21T09:26:47.825Z,9.719120
2022-11-21T09:27:47.830Z,9.719015
2022-11-21T09:28:47.796Z,9.719135
2022-11-21T09:29:53.671Z,9.719272
2022-11-21T09:30:47.799Z,9.719149
2022-11-21T09:31:47.760Z,9.719068
2022-11-21T09:32:47.751Z,9.719108
2022-11-21T09:33:49.726Z,9.719134
2022-11-21T09:34:49.732Z,9.719131
2022-11-21T09:35:48.047Z,9.719049
2022-11-21T09:36:48.719Z,9.719106
2022-11-21T09:37:47.731Z,9.718984
2022-11-21T09:38:47.719Z,9.719022
2022-11-21T09:39:48.943Z,9.719006
2022-11-21T09:40:47.712Z,9.719095
2022-11-21T09:41:47.686Z,9.719098
2022-11-21T09:42:47.691Z,9.719267
2022-11-21T09:43:51.752Z,9.719276
2022-11-21T09:44:48.652Z,9.719300
2022-11-21T09:45:47.670Z,9.719287
2022-11-21T09:46:47.702Z,9.719403
2022-11-21T09:47:47.637Z,9.719370
2022-11-21T09:48:47.651Z,9.719363
2022-11-21T09:49:47.587Z,9.719299
2022-11-21T09:50:53.409Z,9.719251
2022-11-21T09:51:49.625Z,9.719267
2022-11-21T09:52:47.579Z,9.719488
2022-11-21T09:53:47.596Z,9.719581
2022-11-21T09:54:48.136Z,9.719581
2022-11-21T09:55:47.566Z,9.719089
2022-11-21T09:56:47.516Z,9.718963
2022-11-21T09:57:47.520Z,9.718993
2022-11-21T09:58:47.552Z,9.719020
2022-11-21T09:59:47.535Z,9.718964
2022-11-21T10:00:47.570Z,9.718994
2022-11-21T10:01:47.469Z,9.718873
2022-11-21T10:02:47.465Z,9.718998
2022-11-21T10:03:47.652Z,9.719078
2022-11-21T10:04:47.460Z,9.719082
2022-11-21T10:05:47.461Z,9.719186
2022-11-21T10:06:47.442Z,9.719228
2022-11-21T10:07:47.518Z,9.719242
2022-11-21T10:08:48.064Z,9.719239
2022-11-21T10:09:48.222Z,9.719178
2022-11-21T10:10:47.429Z,9.719147
2022-11-21T10:11:48.073Z,9.719136
2022-11-21T10:12:47.368Z,9.719126
2022-11-21T10:13:47.434Z,9.719004
2022-11-21T10:14:48.106Z,9.719112
2022-11-21T10:15:47.333Z,9.719141
2022-11-21T10:16:47.353Z,9.718983
2022-11-21T10:17:48.145Z,9.719055
2022-11-21T10:18:47.335Z,9.719122
2022-11-21T10:19:47.333Z,9.719215
2022-11-21T10:20:48.273Z,9.719398
2022-11-21T10:21:47.297Z,9.719222
2022-11-21T10:22:47.326Z,9.719150
2022-11-21T10:23:47.270Z,9.718846
2022-11-21T10:24:47.252Z,9.718842
2022-11-21T10:25:47.317Z,9.719192
2022-11-21T10:26:47.246Z,9.719465
2022-11-21T10:27:47.279Z,9.719272
2022-11-21T10:28:47.237Z,9.719204
2022-11-21T10:29:47.211Z,9.719191
2022-11-21T10:30:47.201Z,9.719427
2022-11-21T10:31:47.193Z,9.719339
2022-11-21T10:32:47.231Z,9.719318
2022-11-21T10:33:47.229Z,9.719627
2022-11-21T10:34:47.173Z,9.719465
2022-11-21T10:35:47.169Z,9.719209
2022-11-21T10:36:47.140Z,9.719153
2022-11-21T10:37:47.149Z,9.719235
2022-11-21T10:38:47.162Z,9.719195
2022-11-21T10:39:47.136Z,9.719342
2022-11-21T10:40:47.141Z,9.719106
2022-11-21T10:41:47.099Z,9.719226
2022-11-21T10:42:47.072Z,9.718977
2022-11-21T10:43:47.067Z,9.719179
2022-11-21T10:44:47.113Z,9.719098
2022-11-21T10:45:47.033Z,9.719238
2022-11-21T10:46:47.036Z,9.719126
2022-11-21T10:47:47.078Z,9.719154
2022-11-21T10:48:47.044Z,9.718995
2022-11-21T10:49:47.033Z,9.719119
2022-11-21T10:50:47.007Z,9.719140
2022-11-21T10:51:47.174Z,9.719192
2022-11-21T10:52:48.097Z,9.719193
2022-11-21T10:53:47.117Z,9.719360
2022-11-21T10:54:47.962Z,9.719184
2022-11-21T10:55:47.093Z,9.719176
2022-11-21T10:56:47.938Z,9.718966
2022-11-21T10:57:46.954Z,9.719138
2022-11-21T10:58:48.144Z,9.719188
2022-11-21T10:59:47.121Z,9.719178
2022-11-21T11:00:47.933Z,9.719171
2022-11-21T11:01:48.086Z,9.719187
2022-11-21T11:02:47.111Z,9.719173
2022-11-21T11:04:07.097Z,9.719115
2022-11-21T11:04:52.321Z,9.719169
2022-11-21T11:05:47.867Z,9.719241
2022-11-21T11:06:46.833Z,9.719184
2022-11-21T11:07:46.935Z,9.719009
2022-11-21T11:08:46.802Z,9.719084
2022-11-21T11:09:46.824Z,9.719046
2022-11-21T11:10:46.813Z,9.719197
2022-11-21T11:11:48.177Z,9.719164
2022-11-21T11:12:46.829Z,9.719221
2022-11-21T11:13:47.811Z,9.719131
2022-11-21T11:14:47.747Z,9.718991
2022-11-21T11:15:46.786Z,9.718880
2022-11-21T11:16:46.771Z,9.718850
2022-11-21T11:17:48.025Z,9.718750
2022-11-21T11:18:47.152Z,9.718964
2022-11-21T11:19:48.485Z,9.718944
2022-11-21T11:20:46.754Z,9.718940
2022-11-21T11:21:46.753Z,9.718966
2022-11-21T11:22:48.030Z,9.719091
2022-11-21T11:23:47.025Z,9.719019
2022-11-21T11:24:46.894Z,9.719102
2022-11-21T11:25:47.822Z,9.719049
2022-11-21T11:26:48.117Z,9.719038
2022-11-21T11:27:46.649Z,9.719090
2022-11-21T11:28:47.832Z,9.719120
2022-11-21T11:29:46.688Z,9.719024
2022-11-21T11:30:46.615Z,9.719151
2022-11-21T11:31:46.586Z,9.719094
2022-11-21T11:32:46.593Z,9.719001
2022-11-21T11:33:46.989Z,9.719326
2022-11-21T11:34:47.079Z,9.719306
2022-11-21T11:35:47.129Z,9.719071
2022-11-21T11:36:47.171Z,9.719027
2022-11-21T11:37:47.089Z,9.719093
2022-11-21T11:38:47.138Z,9.719017
2022-11-21T11:39:46.542Z,9.718876
2022-11-21T11:40:46.543Z,9.718781
2022-11-21T11:41:47.232Z,9.718971
2022-11-21T11:42:47.205Z,9.718822
2022-11-21T11:43:47.130Z,9.719073
2022-11-21T11:44:47.110Z,9.719166